sensor_id;sensor_type;location;lat;lon;timestamp;pressure;altitude;pressure_sealevel;temperature;humidity
54262;BME280;40174;52.364;6.452;2023-06-22T00:01:33;101763.53;;;18.10;100.00
54262;BME280;40174;52.364;6.452;2023-06-22T00:04:00;101762.44;;;18.03;100.00
54262;BME280;40174;52.364;6.452;2023-06-22T00:06:26;101757.94;;;18.03;100.00
54262;BME280;40174;52.364;6.452;2023-06-22T00:08:53;101755.69;;;17.99;100.00
54262;BME280;40174;52.364;6.452;2023-06-22T00:11:20;101750.63;;;17.96;100.00
54262;BME280;40174;52.364;6.452;2023-06-22T00:13:48;101750.63;;;17.96;100.00
54262;BME280;40174;52.364;6.452;2023-06-22T00:16:16;101750.81;;;17.94;100.00
54262;BME280;40174;52.364;6.452;2023-06-22T00:18:42;101750.81;;;17.94;100.00
54262;BME280;40174;52.364;6.452;2023-06-22T00:21:12;101748.25;;;17.93;100.00
54262;BME280;40174;52.364;6.452;2023-06-22T00:23:39;101744.44;;;17.95;100.00
54262;BME280;40174;52.364;6.452;2023-06-22T00:26:06;101743.63;;;17.95;100.00
54262;BME280;40174;52.364;6.452;2023-06-22T00:28:33;101744.19;;;17.89;100.00
54262;BME280;40174;52.364;6.452;2023-06-22T00:31:02;101732.28;;;17.83;100.00
54262;BME280;40174;52.364;6.452;2023-06-22T00:33:29;101744.09;;;17.80;100.00
54262;BME280;40174;52.364;6.452;2023-06-22T00:35:55;101735.50;;;17.77;100.00
54262;BME280;40174;52.364;6.452;2023-06-22T00:38:22;101737.50;;;17.75;100.00
54262;BME280;40174;52.364;6.452;2023-06-22T00:40:48;101727.94;;;17.72;100.00
54262;BME280;40174;52.364;6.452;2023-06-22T00:43:15;101729.09;;;17.70;100.00
54262;BME280;40174;52.364;6.452;2023-06-22T00:45:42;101726.69;;;17.66;100.00
54262;BME280;40174;52.364;6.452;2023-06-22T00:48:12;101725.16;;;17.64;100.00
54262;BME280;40174;52.364;6.452;2023-06-22T00:50:39;101724.47;;;17.62;100.00
54262;BME280;40174;52.364;6.452;2023-06-22T00:53:08;101722.78;;;17.61;100.00
54262;BME280;40174;52.364;6.452;2023-06-22T00:55:38;101724.47;;;17.62;100.00
54262;BME280;40174;52.364;6.452;2023-06-22T00:58:05;101721.25;;;17.58;100.00
54262;BME280;40174;52.364;6.452;2023-06-22T01:00:35;101705.50;;;17.55;100.00
54262;BME280;40174;52.364;6.452;2023-06-22T01:03:03;101704.78;;;17.53;100.00
54262;BME280;40174;52.364;6.452;2023-06-22T01:05:36;101710.44;;;17.50;100.00
54262;BME280;40174;52.364;6.452;2023-06-22T01:08:12;101712.16;;;17.51;100.00
54262;BME280;40174;52.364;6.452;2023-06-22T01:10:45;101713.25;;;17.49;100.00
54262;BME280;40174;52.364;6.452;2023-06-22T01:13:20;101710.59;;;17.49;100.00
54262;BME280;40174;52.364;6.452;2023-06-22T01:15:54;101710.59;;;17.49;100.00
54262;BME280;40174;52.364;6.452;2023-06-22T01:18:22;101718.78;;;17.47;100.00
54262;BME280;40174;52.364;6.452;2023-06-22T01:20:52;101701.47;;;17.41;100.00
54262;BME280;40174;52.364;6.452;2023-06-22T01:23:29;101719.03;;;17.44;100.00
54262;BME280;40174;52.364;6.452;2023-06-22T01:26:06;101719.22;;;17.42;100.00
54262;BME280;40174;52.364;6.452;2023-06-22T01:28:45;101728.06;;;17.43;100.00
54262;BME280;40174;52.364;6.452;2023-06-22T01:31:15;101725.69;;;17.40;100.00
54262;BME280;40174;52.364;6.452;2023-06-22T01:33:45;101733.72;;;17.40;100.00
54262;BME280;40174;52.364;6.452;2023-06-22T01:36:13;101728.63;;;17.37;100.00
54262;BME280;40174;52.364;6.452;2023-06-22T01:38:41;101722.59;;;17.35;100.00
54262;BME280;40174;52.364;6.452;2023-06-22T01:41:11;101722.75;;;17.33;100.00
54262;BME280;40174;52.364;6.452;2023-06-22T01:43:38;101713.50;;;17.28;100.00
54262;BME280;40174;52.364;6.452;2023-06-22T01:46:06;101720.81;;;17.25;100.00
54262;BME280;40174;52.364;6.452;2023-06-22T01:48:34;101720.41;;;17.20;100.00
54262;BME280;40174;52.364;6.452;2023-06-22T01:51:01;101711.00;;;17.16;100.00
54262;BME280;40174;52.364;6.452;2023-06-22T01:53:28;101710.72;;;17.10;100.00
54262;BME280;40174;52.364;6.452;2023-06-22T01:55:55;101713.78;;;17.15;100.00
54262;BME280;40174;52.364;6.452;2023-06-22T01:58:24;101709.06;;;17.09;100.00
54262;BME280;40174;52.364;6.452;2023-06-22T02:00:56;101709.19;;;17.07;100.00
54262;BME280;40174;52.364;6.452;2023-06-22T02:03:30;101700.78;;;17.02;100.00
54262;BME280;40174;52.364;6.452;2023-06-22T02:06:02;101714.13;;;17.02;100.00
54262;BME280;40174;52.364;6.452;2023-06-22T02:08:32;101711.59;;;17.00;100.00
54262;BME280;40174;52.364;6.452;2023-06-22T02:11:02;101706.13;;;17.02;100.00
54262;BME280;40174;52.364;6.452;2023-06-22T02:13:30;101709.88;;;16.99;100.00
54262;BME280;40174;52.364;6.452;2023-06-22T02:15:57;101703.59;;;17.00;100.00
54262;BME280;40174;52.364;6.452;2023-06-22T02:18:24;101702.03;;;16.98;100.00
54262;BME280;40174;52.364;6.452;2023-06-22T02:20:52;101692.50;;;16.95;100.00
54262;BME280;40174;52.364;6.452;2023-06-22T02:23:19;101687.59;;;16.91;100.00
54262;BME280;40174;52.364;6.452;2023-06-22T02:25:46;101692.06;;;16.90;100.00
54262;BME280;40174;52.364;6.452;2023-06-22T02:28:12;101699.25;;;16.90;100.00
54262;BME280;40174;52.364;6.452;2023-06-22T02:30:39;101697.56;;;16.89;100.00
54262;BME280;40174;52.364;6.452;2023-06-22T02:33:06;101690.69;;;16.86;100.00
54262;BME280;40174;52.364;6.452;2023-06-22T02:35:33;101700.50;;;16.86;100.00
54262;BME280;40174;52.364;6.452;2023-06-22T02:38:03;101690.13;;;16.82;100.00
54262;BME280;40174;52.364;6.452;2023-06-22T02:40:30;101690.97;;;16.83;100.00
54262;BME280;40174;52.364;6.452;2023-06-22T02:42:57;101698.13;;;16.82;100.00
54262;BME280;40174;52.364;6.452;2023-06-22T02:45:27;101691.97;;;16.82;100.00
54262;BME280;40174;52.364;6.452;2023-06-22T02:47:54;101695.59;;;16.81;100.00
54262;BME280;40174;52.364;6.452;2023-06-22T02:50:21;101702.47;;;16.83;100.00
54262;BME280;40174;52.364;6.452;2023-06-22T02:52:48;101695.59;;;16.81;100.00
54262;BME280;40174;52.364;6.452;2023-06-22T02:55:16;101693.19;;;16.78;100.00
54262;BME280;40174;52.364;6.452;2023-06-22T02:57:50;101696.00;;;16.76;100.00
54262;BME280;40174;52.364;6.452;2023-06-22T03:00:19;101698.84;;;16.75;100.00
54262;BME280;40174;52.364;6.452;2023-06-22T03:02:48;101695.28;;;16.74;100.00
54262;BME280;40174;52.364;6.452;2023-06-22T03:05:16;101692.91;;;16.71;100.00
54262;BME280;40174;52.364;6.452;2023-06-22T03:07:44;101697.56;;;16.69;100.00
54262;BME280;40174;52.364;6.452;2023-06-22T03:10:13;101697.69;;;16.68;100.00
54262;BME280;40174;52.364;6.452;2023-06-22T03:12:42;101693.47;;;16.65;100.00
54262;BME280;40174;52.364;6.452;2023-06-22T03:15:10;101693.63;;;16.63;100.00
54262;BME280;40174;52.364;6.452;2023-06-22T03:17:38;101692.94;;;16.61;100.00
54262;BME280;40174;52.364;6.452;2023-06-22T03:20:08;101683.22;;;16.60;100.00
54262;BME280;40174;52.364;6.452;2023-06-22T03:22:36;101687.75;;;16.60;100.00
54262;BME280;40174;52.364;6.452;2023-06-22T03:25:05;101694.91;;;16.59;100.00
54262;BME280;40174;52.364;6.452;2023-06-22T03:27:36;101695.75;;;16.60;100.00
54262;BME280;40174;52.364;6.452;2023-06-22T03:30:07;101683.22;;;16.60;100.00
54262;BME280;40174;52.364;6.452;2023-06-22T03:32:34;101683.38;;;16.59;100.00
54262;BME280;40174;52.364;6.452;2023-06-22T03:35:01;101699.38;;;16.59;100.00
54262;BME280;40174;52.364;6.452;2023-06-22T03:37:28;101684.06;;;16.61;100.00
54262;BME280;40174;52.364;6.452;2023-06-22T03:39:55;101690.28;;;16.61;100.00
54262;BME280;40174;52.364;6.452;2023-06-22T03:42:22;101694.47;;;16.64;100.00
54262;BME280;40174;52.364;6.452;2023-06-22T03:44:49;101696.16;;;16.65;100.00
54262;BME280;40174;52.364;6.452;2023-06-22T03:47:17;101687.44;;;16.63;100.00
54262;BME280;40174;52.364;6.452;2023-06-22T03:49:43;101696.84;;;16.67;100.00
54262;BME280;40174;52.364;6.452;2023-06-22T03:52:10;101696.84;;;16.67;100.00
54262;BME280;40174;52.364;6.452;2023-06-22T03:54:37;101687.88;;;16.68;100.00
54262;BME280;40174;52.364;6.452;2023-06-22T03:57:04;101686.03;;;16.69;100.00
54262;BME280;40174;52.364;6.452;2023-06-22T03:59:31;101676.19;;;16.69;100.00
54262;BME280;40174;52.364;6.452;2023-06-22T04:01:58;101668.75;;;16.73;100.00
54262;BME280;40174;52.364;6.452;2023-06-22T04:04:26;101674.09;;;16.73;100.00
54262;BME280;40174;52.364;6.452;2023-06-22T04:06:53;101676.78;;;16.73;100.00
54262;BME280;40174;52.364;6.452;2023-06-22T04:09:19;101675.06;;;16.72;100.00
54262;BME280;40174;52.364;6.452;2023-06-22T04:11:47;101667.75;;;16.74;100.00
54262;BME280;40174;52.364;6.452;2023-06-22T04:14:13;101663.25;;;16.74;100.00
54262;BME280;40174;52.364;6.452;2023-06-22T04:16:40;101671.44;;;16.73;100.00
54262;BME280;40174;52.364;6.452;2023-06-22T04:19:07;101677.47;;;16.75;100.00
54262;BME280;40174;52.364;6.452;2023-06-22T04:21:40;101674.66;;;16.76;100.00
54262;BME280;40174;52.364;6.452;2023-06-22T04:24:07;101679.00;;;16.77;100.00
54262;BME280;40174;52.364;6.452;2023-06-22T04:26:34;101672.81;;;16.77;100.00
54262;BME280;40174;52.364;6.452;2023-06-22T04:29:03;101683.25;;;16.80;100.00
54262;BME280;40174;52.364;6.452;2023-06-22T04:31:30;101688.44;;;16.81;100.00
54262;BME280;40174;52.364;6.452;2023-06-22T04:33:57;101680.59;;;16.80;100.00
54262;BME280;40174;52.364;6.452;2023-06-22T04:36:31;101675.06;;;16.81;100.00
54262;BME280;40174;52.364;6.452;2023-06-22T04:39:04;101682.81;;;16.85;100.00
54262;BME280;40174;52.364;6.452;2023-06-22T04:41:32;101675.78;;;16.83;100.00
54262;BME280;40174;52.364;6.452;2023-06-22T04:44:08;101675.91;;;16.92;100.00
54262;BME280;40174;52.364;6.452;2023-06-22T04:46:35;101669.75;;;16.91;100.00
54262;BME280;40174;52.364;6.452;2023-06-22T04:49:04;101667.59;;;16.95;100.00
54262;BME280;40174;52.364;6.452;2023-06-22T04:51:39;101672.09;;;16.94;100.00
54262;BME280;40174;52.364;6.452;2023-06-22T04:54:09;101668.16;;;16.98;100.00
54262;BME280;40174;52.364;6.452;2023-06-22T04:56:36;101669.69;;;17.01;100.00
54262;BME280;40174;52.364;6.452;2023-06-22T04:59:06;101668.56;;;17.03;100.00
54262;BME280;40174;52.364;6.452;2023-06-22T05:01:33;101660.97;;;17.09;100.00
54262;BME280;40174;52.364;6.452;2023-06-22T05:04:00;101657.19;;;17.11;100.00
54262;BME280;40174;52.364;6.452;2023-06-22T05:06:28;101657.63;;;17.34;100.00
54262;BME280;40174;52.364;6.452;2023-06-22T05:08:55;101661.38;;;17.51;100.00
54262;BME280;40174;52.364;6.452;2023-06-22T05:11:25;101664.13;;;17.59;100.00
54262;BME280;40174;52.364;6.452;2023-06-22T05:13:52;101661.69;;;17.66;100.00
54262;BME280;40174;52.364;6.452;2023-06-22T05:16:20;101670.50;;;17.76;100.00
54262;BME280;40174;52.364;6.452;2023-06-22T05:18:51;101668.38;;;17.80;100.00
54262;BME280;40174;52.364;6.452;2023-06-22T05:21:21;101672.16;;;17.87;100.00
54262;BME280;40174;52.364;6.452;2023-06-22T05:23:48;101664.66;;;17.91;100.00
54262;BME280;40174;52.364;6.452;2023-06-22T05:26:15;101665.06;;;17.96;100.00
54262;BME280;40174;52.364;6.452;2023-06-22T05:28:43;101669.81;;;18.02;100.00
54262;BME280;40174;52.364;6.452;2023-06-22T05:31:12;101664.84;;;18.07;100.00
54262;BME280;40174;52.364;6.452;2023-06-22T05:33:38;101668.88;;;18.11;100.00
54262;BME280;40174;52.364;6.452;2023-06-22T05:36:05;101666.38;;;18.10;100.00
54262;BME280;40174;52.364;6.452;2023-06-22T05:38:32;101665.38;;;18.11;100.00
54262;BME280;40174;52.364;6.452;2023-06-22T05:40:59;101644.34;;;18.16;100.00
54262;BME280;40174;52.364;6.452;2023-06-22T05:43:25;101673.03;;;18.23;100.00
54262;BME280;40174;52.364;6.452;2023-06-22T05:45:53;101663.72;;;18.27;100.00
54262;BME280;40174;52.364;6.452;2023-06-22T05:48:20;101663.41;;;18.31;100.00
54262;BME280;40174;52.364;6.452;2023-06-22T05:50:48;101667.44;;;18.35;100.00
54262;BME280;40174;52.364;6.452;2023-06-22T05:53:14;101675.69;;;18.41;100.00
54262;BME280;40174;52.364;6.452;2023-06-22T05:55:41;101678.28;;;18.51;100.00
54262;BME280;40174;52.364;6.452;2023-06-22T05:58:08;101676.44;;;18.52;100.00
54262;BME280;40174;52.364;6.452;2023-06-22T06:00:35;101675.47;;;18.53;100.00
54262;BME280;40174;52.364;6.452;2023-06-22T06:03:03;101685.72;;;18.57;100.00
54262;BME280;40174;52.364;6.452;2023-06-22T06:05:30;101689.06;;;18.59;100.00
54262;BME280;40174;52.364;6.452;2023-06-22T06:07:57;101688.47;;;18.65;100.00
54262;BME280;40174;52.364;6.452;2023-06-22T06:10:23;101689.19;;;18.76;100.00
54262;BME280;40174;52.364;6.452;2023-06-22T06:12:50;101687.59;;;18.83;100.00
54262;BME280;40174;52.364;6.452;2023-06-22T06:15:17;101680.31;;;18.93;100.00
54262;BME280;40174;52.364;6.452;2023-06-22T06:17:47;101692.41;;;18.97;100.00
54262;BME280;40174;52.364;6.452;2023-06-22T06:20:17;101691.25;;;19.00;100.00
54262;BME280;40174;52.364;6.452;2023-06-22T06:22:44;101683.72;;;19.03;100.00
54262;BME280;40174;52.364;6.452;2023-06-22T06:25:11;101685.47;;;19.13;100.00
54262;BME280;40174;52.364;6.452;2023-06-22T06:27:42;101679.28;;;19.20;100.00
54262;BME280;40174;52.364;6.452;2023-06-22T06:30:09;101688.91;;;19.31;100.00
54262;BME280;40174;52.364;6.452;2023-06-22T06:32:36;101680.88;;;19.39;100.00
54262;BME280;40174;52.364;6.452;2023-06-22T06:35:04;101673.72;;;19.40;100.00
54262;BME280;40174;52.364;6.452;2023-06-22T06:37:35;101674.25;;;19.51;100.00
54262;BME280;40174;52.364;6.452;2023-06-22T06:40:03;101673.63;;;19.58;100.00
54262;BME280;40174;52.364;6.452;2023-06-22T06:42:32;101672.63;;;19.67;100.00
54262;BME280;40174;52.364;6.452;2023-06-22T06:44:58;101669.50;;;19.80;100.00
54262;BME280;40174;52.364;6.452;2023-06-22T06:47:25;101673.06;;;19.88;100.00
54262;BME280;40174;52.364;6.452;2023-06-22T06:49:52;101667.56;;;19.98;100.00
54262;BME280;40174;52.364;6.452;2023-06-22T06:52:18;101671.09;;;20.07;100.00
54262;BME280;40174;52.364;6.452;2023-06-22T06:54:47;101666.91;;;20.12;100.00
54262;BME280;40174;52.364;6.452;2023-06-22T06:57:14;101669.09;;;20.17;100.00
54262;BME280;40174;52.364;6.452;2023-06-22T06:59:40;101669.59;;;20.29;100.00
54262;BME280;40174;52.364;6.452;2023-06-22T07:02:07;101675.50;;;20.41;100.00
54262;BME280;40174;52.364;6.452;2023-06-22T07:04:34;101675.16;;;20.52;100.00
54262;BME280;40174;52.364;6.452;2023-06-22T07:07:01;101673.81;;;20.64;100.00
54262;BME280;40174;52.364;6.452;2023-06-22T07:09:28;101671.97;;;20.73;100.00
54262;BME280;40174;52.364;6.452;2023-06-22T07:11:56;101667.06;;;20.85;100.00
54262;BME280;40174;52.364;6.452;2023-06-22T07:14:23;101661.34;;;20.96;100.00
54262;BME280;40174;52.364;6.452;2023-06-22T07:16:50;101665.69;;;21.05;100.00
54262;BME280;40174;52.364;6.452;2023-06-22T07:19:24;101665.00;;;21.20;100.00
54262;BME280;40174;52.364;6.452;2023-06-22T07:21:50;101661.09;;;21.30;100.00
54262;BME280;40174;52.364;6.452;2023-06-22T07:24:17;101654.00;;;21.37;100.00
54262;BME280;40174;52.364;6.452;2023-06-22T07:26:45;101648.13;;;21.42;100.00
54262;BME280;40174;52.364;6.452;2023-06-22T07:29:13;101649.94;;;21.50;100.00
54262;BME280;40174;52.364;6.452;2023-06-22T07:31:40;101640.34;;;21.55;100.00
54262;BME280;40174;52.364;6.452;2023-06-22T07:34:06;101636.72;;;21.71;100.00
54262;BME280;40174;52.364;6.452;2023-06-22T07:36:33;101636.31;;;21.83;100.00
54262;BME280;40174;52.364;6.452;2023-06-22T07:39:01;101637.06;;;21.99;100.00
54262;BME280;40174;52.364;6.452;2023-06-22T07:41:28;101637.28;;;22.13;100.00
54262;BME280;40174;52.364;6.452;2023-06-22T07:43:54;101634.19;;;22.24;100.00
54262;BME280;40174;52.364;6.452;2023-06-22T07:46:23;101641.50;;;22.38;100.00
54262;BME280;40174;52.364;6.452;2023-06-22T07:48:49;101638.09;;;22.45;100.00
54262;BME280;40174;52.364;6.452;2023-06-22T07:51:16;101640.03;;;22.51;100.00
54262;BME280;40174;52.364;6.452;2023-06-22T07:53:43;101649.69;;;22.60;100.00
54262;BME280;40174;52.364;6.452;2023-06-22T07:56:10;101639.59;;;22.62;100.00
54262;BME280;40174;52.364;6.452;2023-06-22T07:58:37;101639.78;;;22.75;100.00
54262;BME280;40174;52.364;6.452;2023-06-22T08:01:04;101640.47;;;22.92;100.00
54262;BME280;40174;52.364;6.452;2023-06-22T08:03:32;101638.84;;;23.06;100.00
54262;BME280;40174;52.364;6.452;2023-06-22T08:05:59;101625.81;;;23.10;100.00
54262;BME280;40174;52.364;6.452;2023-06-22T08:08:26;101625.91;;;23.16;100.00
54262;BME280;40174;52.364;6.452;2023-06-22T08:10:52;101626.56;;;23.18;100.00
54262;BME280;40174;52.364;6.452;2023-06-22T08:13:19;101628.22;;;23.19;99.17
54262;BME280;40174;52.364;6.452;2023-06-22T08:15:46;101632.13;;;23.17;98.46
54262;BME280;40174;52.364;6.452;2023-06-22T08:18:13;101626.66;;;23.25;98.87
54262;BME280;40174;52.364;6.452;2023-06-22T08:20:41;101628.41;;;23.33;97.36
54262;BME280;40174;52.364;6.452;2023-06-22T08:23:08;101623.91;;;23.40;98.43
54262;BME280;40174;52.364;6.452;2023-06-22T08:25:35;101627.53;;;23.47;95.16
54262;BME280;40174;52.364;6.452;2023-06-22T08:28:02;101623.81;;;23.48;95.77
54262;BME280;40174;52.364;6.452;2023-06-22T08:30:29;101633.56;;;23.49;96.10
54262;BME280;40174;52.364;6.452;2023-06-22T08:32:56;101626.94;;;23.66;96.98
54262;BME280;40174;52.364;6.452;2023-06-22T08:35:23;101626.28;;;23.79;95.94
54262;BME280;40174;52.364;6.452;2023-06-22T08:37:51;101616.06;;;23.96;94.78
54262;BME280;40174;52.364;6.452;2023-06-22T08:40:20;101610.53;;;24.04;92.11
54262;BME280;40174;52.364;6.452;2023-06-22T08:42:47;101604.63;;;24.16;92.54
54262;BME280;40174;52.364;6.452;2023-06-22T08:45:14;101592.59;;;24.18;90.74
54262;BME280;40174;52.364;6.452;2023-06-22T08:47:42;101593.16;;;24.35;90.82
54262;BME280;40174;52.364;6.452;2023-06-22T08:50:09;101586.56;;;24.44;90.26
54262;BME280;40174;52.364;6.452;2023-06-22T08:52:36;101587.03;;;24.48;89.79
54262;BME280;40174;52.364;6.452;2023-06-22T08:55:05;101577.69;;;24.51;89.66
54262;BME280;40174;52.364;6.452;2023-06-22T08:57:32;101580.09;;;24.67;90.71
54262;BME280;40174;52.364;6.452;2023-06-22T08:59:59;101578.31;;;24.81;91.23
54262;BME280;40174;52.364;6.452;2023-06-22T09:02:26;101570.19;;;24.81;88.24
54262;BME280;40174;52.364;6.452;2023-06-22T09:04:56;101565.38;;;24.76;87.00
54262;BME280;40174;52.364;6.452;2023-06-22T09:07:23;101556.22;;;24.77;86.95
54262;BME280;40174;52.364;6.452;2023-06-22T09:09:51;101558.09;;;24.77;87.37
54262;BME280;40174;52.364;6.452;2023-06-22T09:12:20;101554.38;;;24.78;88.01
54262;BME280;40174;52.364;6.452;2023-06-22T09:14:51;101561.94;;;24.89;87.38
54262;BME280;40174;52.364;6.452;2023-06-22T09:17:17;101552.97;;;24.88;87.35
54262;BME280;40174;52.364;6.452;2023-06-22T09:19:44;101553.41;;;24.92;85.29
54262;BME280;40174;52.364;6.452;2023-06-22T09:22:10;101553.03;;;25.02;86.15
54262;BME280;40174;52.364;6.452;2023-06-22T09:24:37;101554.09;;;25.07;85.98
54262;BME280;40174;52.364;6.452;2023-06-22T09:27:04;101562.06;;;25.16;85.66
54262;BME280;40174;52.364;6.452;2023-06-22T09:29:32;101553.56;;;25.19;86.08
54262;BME280;40174;52.364;6.452;2023-06-22T09:31:59;101553.59;;;25.25;86.29
54262;BME280;40174;52.364;6.452;2023-06-22T09:34:26;101564.19;;;25.20;84.78
54262;BME280;40174;52.364;6.452;2023-06-22T09:36:53;101568.72;;;25.20;85.61
54262;BME280;40174;52.364;6.452;2023-06-22T09:39:20;101567.34;;;25.37;86.02
54262;BME280;40174;52.364;6.452;2023-06-22T09:41:47;101566.53;;;25.43;85.30
54262;BME280;40174;52.364;6.452;2023-06-22T09:44:13;101571.97;;;25.50;84.62
54262;BME280;40174;52.364;6.452;2023-06-22T09:46:41;101572.63;;;25.59;81.69
54262;BME280;40174;52.364;6.452;2023-06-22T09:49:08;101572.19;;;25.55;80.95
54262;BME280;40174;52.364;6.452;2023-06-22T09:51:35;101569.28;;;25.57;81.81
54262;BME280;40174;52.364;6.452;2023-06-22T09:54:01;101565.75;;;25.56;80.00
54262;BME280;40174;52.364;6.452;2023-06-22T09:56:28;101567.41;;;25.57;81.52
54262;BME280;40174;52.364;6.452;2023-06-22T09:58:55;101558.88;;;25.67;82.35
54262;BME280;40174;52.364;6.452;2023-06-22T10:01:22;101558.50;;;25.77;81.26
54262;BME280;40174;52.364;6.452;2023-06-22T10:03:53;101557.88;;;25.75;77.09
54262;BME280;40174;52.364;6.452;2023-06-22T10:06:21;101562.03;;;25.77;77.08
54262;BME280;40174;52.364;6.452;2023-06-22T10:08:48;101562.47;;;25.81;76.37
54262;BME280;40174;52.364;6.452;2023-06-22T10:11:16;101559.16;;;25.99;76.50
54262;BME280;40174;52.364;6.452;2023-06-22T10:13:43;101545.22;;;26.08;75.99
54262;BME280;40174;52.364;6.452;2023-06-22T10:16:09;101544.16;;;26.03;75.73
54262;BME280;40174;52.364;6.452;2023-06-22T10:18:36;101537.09;;;25.95;76.42
54262;BME280;40174;52.364;6.452;2023-06-22T10:21:04;101538.50;;;25.84;77.60
54262;BME280;40174;52.364;6.452;2023-06-22T10:23:31;101543.09;;;25.84;78.78
54262;BME280;40174;52.364;6.452;2023-06-22T10:25:58;101535.78;;;25.84;79.53
54262;BME280;40174;52.364;6.452;2023-06-22T10:28:24;101547.91;;;25.88;80.23
54262;BME280;40174;52.364;6.452;2023-06-22T10:30:51;101536.88;;;25.90;79.24
54262;BME280;40174;52.364;6.452;2023-06-22T10:33:18;101544.16;;;25.96;79.13
54262;BME280;40174;52.364;6.452;2023-06-22T10:35:45;101551.66;;;26.01;79.12
54262;BME280;40174;52.364;6.452;2023-06-22T10:38:13;101547.47;;;25.98;76.67
54262;BME280;40174;52.364;6.452;2023-06-22T10:40:40;101548.53;;;25.90;74.67
54262;BME280;40174;52.364;6.452;2023-06-22T10:43:07;101548.06;;;25.80;75.57
54262;BME280;40174;52.364;6.452;2023-06-22T10:45:33;101545.38;;;25.87;75.24
54262;BME280;40174;52.364;6.452;2023-06-22T10:48:00;101543.91;;;25.71;76.13
54262;BME280;40174;52.364;6.452;2023-06-22T10:50:27;101548.50;;;25.77;77.92
54262;BME280;40174;52.364;6.452;2023-06-22T10:52:54;101549.53;;;25.69;77.23
54262;BME280;40174;52.364;6.452;2023-06-22T10:55:22;101541.81;;;25.73;75.06
54262;BME280;40174;52.364;6.452;2023-06-22T10:57:48;101545.16;;;25.68;75.99
54262;BME280;40174;52.364;6.452;2023-06-22T11:00:16;101544.69;;;25.58;75.72
54262;BME280;40174;52.364;6.452;2023-06-22T11:02:45;101541.16;;;25.58;76.71
54262;BME280;40174;52.364;6.452;2023-06-22T11:05:12;101538.88;;;25.55;73.81
54262;BME280;40174;52.364;6.452;2023-06-22T11:07:41;101544.72;;;25.51;73.62
54262;BME280;40174;52.364;6.452;2023-06-22T11:10:09;101534.09;;;25.57;74.19
54262;BME280;40174;52.364;6.452;2023-06-22T11:12:37;101536.81;;;25.57;74.08
54262;BME280;40174;52.364;6.452;2023-06-22T11:15:04;101528.69;;;25.57;75.30
54262;BME280;40174;52.364;6.452;2023-06-22T11:17:31;101531.16;;;25.58;75.83
54262;BME280;40174;52.364;6.452;2023-06-22T11:19:58;101523.28;;;25.57;77.08
54262;BME280;40174;52.364;6.452;2023-06-22T11:22:25;101532.44;;;25.62;77.19
54262;BME280;40174;52.364;6.452;2023-06-22T11:24:52;101522.66;;;25.61;76.21
54262;BME280;40174;52.364;6.452;2023-06-22T11:27:19;101522.25;;;25.71;76.79
54262;BME280;40174;52.364;6.452;2023-06-22T11:29:47;101510.78;;;25.76;75.59
54262;BME280;40174;52.364;6.452;2023-06-22T11:32:15;101503.09;;;25.79;74.82
54262;BME280;40174;52.364;6.452;2023-06-22T11:34:41;101514.56;;;25.81;75.62
54262;BME280;40174;52.364;6.452;2023-06-22T11:37:08;101503.50;;;25.83;76.54
54262;BME280;40174;52.364;6.452;2023-06-22T11:39:35;101508.50;;;25.79;75.40
54262;BME280;40174;52.364;6.452;2023-06-22T11:42:01;101501.03;;;25.81;76.03
54262;BME280;40174;52.364;6.452;2023-06-22T11:44:28;101494.97;;;25.79;75.63
54262;BME280;40174;52.364;6.452;2023-06-22T11:46:56;101495.59;;;25.81;75.25
54262;BME280;40174;52.364;6.452;2023-06-22T11:49:23;101489.13;;;25.82;75.96
54262;BME280;40174;52.364;6.452;2023-06-22T11:51:49;101488.72;;;25.79;75.89
54262;BME280;40174;52.364;6.452;2023-06-22T11:54:16;101487.69;;;25.73;75.63
54262;BME280;40174;52.364;6.452;2023-06-22T11:56:43;101488.09;;;25.70;75.75
54262;BME280;40174;52.364;6.452;2023-06-22T11:59:09;101474.78;;;25.68;76.98
54262;BME280;40174;52.364;6.452;2023-06-22T12:01:36;101475.59;;;25.69;77.25
54262;BME280;40174;52.364;6.452;2023-06-22T12:04:04;101479.16;;;25.63;74.75
54262;BME280;40174;52.364;6.452;2023-06-22T12:06:31;101468.53;;;25.55;74.54
54262;BME280;40174;52.364;6.452;2023-06-22T12:08:58;101454.56;;;25.44;75.25
54262;BME280;40174;52.364;6.452;2023-06-22T12:11:24;101457.47;;;25.43;75.13
54262;BME280;40174;52.364;6.452;2023-06-22T12:13:51;101468.06;;;25.38;74.60
54262;BME280;40174;52.364;6.452;2023-06-22T12:16:18;101467.84;;;25.26;75.22
54262;BME280;40174;52.364;6.452;2023-06-22T12:18:47;101467.63;;;25.21;76.25
54262;BME280;40174;52.364;6.452;2023-06-22T12:21:15;101452.00;;;25.16;77.23
54262;BME280;40174;52.364;6.452;2023-06-22T12:23:42;101453.44;;;25.12;77.20
54262;BME280;40174;52.364;6.452;2023-06-22T12:26:08;101463.00;;;25.08;76.11
54262;BME280;40174;52.364;6.452;2023-06-22T12:28:35;101459.84;;;24.98;74.43
54262;BME280;40174;52.364;6.452;2023-06-22T12:31:01;101455.88;;;24.94;75.16
54262;BME280;40174;52.364;6.452;2023-06-22T12:33:28;101449.03;;;24.91;75.31
54262;BME280;40174;52.364;6.452;2023-06-22T12:35:55;101445.25;;;24.85;75.19
54262;BME280;40174;52.364;6.452;2023-06-22T12:38:23;101440.03;;;24.84;76.74
54262;BME280;40174;52.364;6.452;2023-06-22T12:40:51;101441.28;;;24.81;76.52
54262;BME280;40174;52.364;6.452;2023-06-22T12:43:17;101448.13;;;24.77;77.96
54262;BME280;40174;52.364;6.452;2023-06-22T12:45:44;101458.09;;;24.77;77.45